sensor_id;sensor_type;location;lat;lon;timestamp;temperature;humidity
42421;DHT22;28063;48.140;11.588;2023-08-06T07:43:27;15.60;99.90
42421;DHT22;28063;48.140;11.588;2023-08-06T07:45:53;15.60;99.90
42421;DHT22;28063;48.140;11.588;2023-08-06T07:48:19;15.50;99.90
42421;DHT22;28063;48.140;11.588;2023-08-06T07:50:44;15.50;99.90
42421;DHT22;28063;48.140;11.588;2023-08-06T07:53:15;15.50;99.90
42421;DHT22;28063;48.140;11.588;2023-08-06T07:55:41;15.50;99.90
42421;DHT22;28063;48.140;11.588;2023-08-06T07:58:08;15.50;99.90
42421;DHT22;28063;48.140;11.588;2023-08-06T08:00:33;15.50;99.90
42421;DHT22;28063;48.140;11.588;2023-08-06T08:02:59;15.60;99.90
42421;DHT22;28063;48.140;11.588;2023-08-06T08:05:24;15.80;99.90
42421;DHT22;28063;48.140;11.588;2023-08-06T08:07:50;16.10;99.90
42421;DHT22;28063;48.140;11.588;2023-08-06T08:10:16;16.50;99.90
42421;DHT22;28063;48.140;11.588;2023-08-06T08:12:42;16.80;99.90
42421;DHT22;28063;48.140;11.588;2023-08-06T08:15:08;17.20;99.90
42421;DHT22;28063;48.140;11.588;2023-08-06T08:17:34;17.60;99.90
42421;DHT22;28063;48.140;11.588;2023-08-06T08:20:00;17.80;99.90
42421;DHT22;28063;48.140;11.588;2023-08-06T08:22:25;18.00;99.90
42421;DHT22;28063;48.140;11.588;2023-08-06T08:24:51;18.20;99.90
42421;DHT22;28063;48.140;11.588;2023-08-06T08:27:17;18.20;99.90
42421;DHT22;28063;48.140;11.588;2023-08-06T08:29:42;18.30;99.90
42421;DHT22;28063;48.140;11.588;2023-08-06T08:32:08;18.30;99.90
42421;DHT22;28063;48.140;11.588;2023-08-06T08:34:34;18.40;99.90
42421;DHT22;28063;48.140;11.588;2023-08-06T08:37:00;18.50;99.90
42421;DHT22;28063;48.140;11.588;2023-08-06T08:39:25;18.60;99.90
42421;DHT22;28063;48.140;11.588;2023-08-06T08:41:51;18.70;99.90
42421;DHT22;28063;48.140;11.588;2023-08-06T08:44:17;18.50;99.90
42421;DHT22;28063;48.140;11.588;2023-08-06T08:46:44;17.90;99.90
42421;DHT22;28063;48.140;11.588;2023-08-06T08:49:11;17.50;99.90
42421;DHT22;28063;48.140;11.588;2023-08-06T08:51:37;17.10;99.90
42421;DHT22;28063;48.140;11.588;2023-08-06T08:54:04;16.80;99.90
42421;DHT22;28063;48.140;11.588;2023-08-06T08:56:30;16.50;99.90
42421;DHT22;28063;48.140;11.588;2023-08-06T08:58:57;16.50;99.90
42421;DHT22;28063;48.140;11.588;2023-08-06T09:01:22;16.70;99.90
42421;DHT22;28063;48.140;11.588;2023-08-06T09:03:50;16.90;99.90
42421;DHT22;28063;48.140;11.588;2023-08-06T09:06:17;17.20;99.90
42421;DHT22;28063;48.140;11.588;2023-08-06T09:09:01;17.20;99.90
42421;DHT22;28063;48.140;11.588;2023-08-06T09:11:27;17.20;99.90
42421;DHT22;28063;48.140;11.588;2023-08-06T09:13:57;17.10;99.90
42421;DHT22;28063;48.140;11.588;2023-08-06T09:16:23;17.10;99.90
42421;DHT22;28063;48.140;11.588;2023-08-06T09:18:49;17.20;99.90
42421;DHT22;28063;48.140;11.588;2023-08-06T09:21:15;17.10;99.90
42421;DHT22;28063;48.140;11.588;2023-08-06T09:23:41;16.90;99.90
42421;DHT22;28063;48.140;11.588;2023-08-06T09:26:11;16.90;99.90
42421;DHT22;28063;48.140;11.588;2023-08-06T09:28:38;16.90;99.90
42421;DHT22;28063;48.140;11.588;2023-08-06T09:31:04;17.10;99.90
42421;DHT22;28063;48.140;11.588;2023-08-06T09:33:30;17.20;99.90
42421;DHT22;28063;48.140;11.588;2023-08-06T09:35:56;17.20;99.90
42421;DHT22;28063;48.140;11.588;2023-08-06T09:38:22;17.20;99.90
42421;DHT22;28063;48.140;11.588;2023-08-06T09:40:47;17.20;99.90
42421;DHT22;28063;48.140;11.588;2023-08-06T09:43:13;17.30;99.90
42421;DHT22;28063;48.140;11.588;2023-08-06T09:45:39;17.20;99.90
42421;DHT22;28063;48.140;11.588;2023-08-06T09:48:07;17.40;99.90
42421;DHT22;28063;48.140;11.588;2023-08-06T09:50:34;17.50;99.90
42421;DHT22;28063;48.140;11.588;2023-08-06T09:53:05;17.50;99.90
42421;DHT22;28063;48.140;11.588;2023-08-06T09:55:32;17.30;98.90
42421;DHT22;28063;48.140;11.588;2023-08-06T09:57:59;17.00;99.90
42421;DHT22;28063;48.140;11.588;2023-08-06T10:00:24;16.90;97.50
42421;DHT22;28063;48.140;11.588;2023-08-06T10:02:51;17.00;94.80
42421;DHT22;28063;48.140;11.588;2023-08-06T10:05:21;17.10;96.40
42421;DHT22;28063;48.140;11.588;2023-08-06T10:07:47;17.30;94.50
42421;DHT22;28063;48.140;11.588;2023-08-06T10:10:14;17.30;96.00
42421;DHT22;28063;48.140;11.588;2023-08-06T10:12:44;17.30;97.10
42421;DHT22;28063;48.140;11.588;2023-08-06T10:15:14;17.30;95.10
42421;DHT22;28063;48.140;11.588;2023-08-06T10:17:41;17.30;91.50
42421;DHT22;28063;48.140;11.588;2023-08-06T10:20:08;17.20;91.00
42421;DHT22;28063;48.140;11.588;2023-08-06T10:22:34;17.00;90.30
42421;DHT22;28063;48.140;11.588;2023-08-06T10:25:01;16.90;93.00
42421;DHT22;28063;48.140;11.588;2023-08-06T10:27:40;17.20;93.60
42421;DHT22;28063;48.140;11.588;2023-08-06T10:30:28;17.50;91.20
42421;DHT22;28063;48.140;11.588;2023-08-06T10:33:02;17.80;92.60
42421;DHT22;28063;48.140;11.588;2023-08-06T10:35:46;18.20;91.50
42421;DHT22;28063;48.140;11.588;2023-08-06T10:38:20;18.70;86.30
42421;DHT22;28063;48.140;11.588;2023-08-06T10:45:55;18.20;82.50
42421;DHT22;28063;48.140;11.588;2023-08-06T10:48:38;18.30;81.40
42421;DHT22;28063;48.140;11.588;2023-08-06T10:51:09;18.50;82.40
42421;DHT22;28063;48.140;11.588;2023-08-06T10:53:35;18.80;80.30
42421;DHT22;28063;48.140;11.588;2023-08-06T10:56:01;19.00;78.90
42421;DHT22;28063;48.140;11.588;2023-08-06T10:58:32;19.10;77.70
42421;DHT22;28063;48.140;11.588;2023-08-06T11:03:26;19.20;76.10
42421;DHT22;28063;48.140;11.588;2023-08-06T11:05:52;19.50;76.70
42421;DHT22;28063;48.140;11.588;2023-08-06T11:08:24;19.70;76.00
42421;DHT22;28063;48.140;11.588;2023-08-06T11:10:50;19.70;75.70
42421;DHT22;28063;48.140;11.588;2023-08-06T11:13:20;19.60;73.00
42421;DHT22;28063;48.140;11.588;2023-08-06T11:15:46;19.30;74.70
42421;DHT22;28063;48.140;11.588;2023-08-06T11:18:11;19.40;75.80
42421;DHT22;28063;48.140;11.588;2023-08-06T11:20:38;19.40;75.00
42421;DHT22;28063;48.140;11.588;2023-08-06T11:23:04;19.30;74.20
42421;DHT22;28063;48.140;11.588;2023-08-06T11:25:30;19.10;75.30
42421;DHT22;28063;48.140;11.588;2023-08-06T11:27:56;19.00;75.10
42421;DHT22;28063;48.140;11.588;2023-08-06T11:30:22;18.90;76.50
42421;DHT22;28063;48.140;11.588;2023-08-06T11:32:48;19.00;75.80
42421;DHT22;28063;48.140;11.588;2023-08-06T11:35:15;19.00;76.00
42421;DHT22;28063;48.140;11.588;2023-08-06T11:37:47;19.20;75.40
42421;DHT22;28063;48.140;11.588;2023-08-06T11:40:15;19.50;75.20
42421;DHT22;28063;48.140;11.588;2023-08-06T11:42:40;19.60;74.80
42421;DHT22;28063;48.140;11.588;2023-08-06T11:45:08;19.70;74.20
42421;DHT22;28063;48.140;11.588;2023-08-06T11:47:38;19.90;74.10
42421;DHT22;28063;48.140;11.588;2023-08-06T11:50:07;20.00;74.10
42421;DHT22;28063;48.140;11.588;2023-08-06T11:52:33;20.00;74.40
42421;DHT22;28063;48.140;11.588;2023-08-06T11:55:02;20.00;72.80
42421;DHT22;28063;48.140;11.588;2023-08-06T11:57:32;20.10;72.70
42421;DHT22;28063;48.140;11.588;2023-08-06T12:00:12;20.10;72.20
42421;DHT22;28063;48.140;11.588;2023-08-06T12:02:43;20.30;72.80
42421;DHT22;28063;48.140;11.588;2023-08-06T12:05:16;20.40;71.40
42421;DHT22;28063;48.140;11.588;2023-08-06T12:07:48;20.40;71.20
42421;DHT22;28063;48.140;11.588;2023-08-06T12:10:14;20.30;71.50
42421;DHT22;28063;48.140;11.588;2023-08-06T12:12:41;20.40;71.70
42421;DHT22;28063;48.140;11.588;2023-08-06T12:15:07;20.30;70.80
42421;DHT22;28063;48.140;11.588;2023-08-06T12:17:34;20.10;71.40
42421;DHT22;28063;48.140;11.588;2023-08-06T12:20:00;20.00;70.90
42421;DHT22;28063;48.140;11.588;2023-08-06T12:22:26;20.00;71.80
42421;DHT22;28063;48.140;11.588;2023-08-06T12:24:52;20.10;72.30
42421;DHT22;28063;48.140;11.588;2023-08-06T12:27:18;20.30;72.10
42421;DHT22;28063;48.140;11.588;2023-08-06T12:29:45;20.20;71.00
42421;DHT22;28063;48.140;11.588;2023-08-06T12:32:11;20.00;71.50
42421;DHT22;28063;48.140;11.588;2023-08-06T12:34:40;19.80;72.50
42421;DHT22;28063;48.140;11.588;2023-08-06T12:37:07;19.70;71.90
42421;DHT22;28063;48.140;11.588;2023-08-06T12:39:33;19.50;73.40
42421;DHT22;28063;48.140;11.588;2023-08-06T12:42:03;19.40;73.90
42421;DHT22;28063;48.140;11.588;2023-08-06T12:44:29;19.10;74.00
42421;DHT22;28063;48.140;11.588;2023-08-06T12:46:55;18.60;75.80
42421;DHT22;28063;48.140;11.588;2023-08-06T12:49:21;18.30;78.70
42421;DHT22;28063;48.140;11.588;2023-08-06T12:51:48;17.90;80.60
42421;DHT22;28063;48.140;11.588;2023-08-06T12:54:14;17.40;83.50
42421;DHT22;28063;48.140;11.588;2023-08-06T12:56:39;17.20;85.70
42421;DHT22;28063;48.140;11.588;2023-08-06T12:59:05;17.10;86.90
42421;DHT22;28063;48.140;11.588;2023-08-06T13:01:31;17.40;87.80
42421;DHT22;28063;48.140;11.588;2023-08-06T13:03:59;17.90;86.60
42421;DHT22;28063;48.140;11.588;2023-08-06T13:06:25;18.40;84.10
42421;DHT22;28063;48.140;11.588;2023-08-06T13:08:51;18.80;81.60
42421;DHT22;28063;48.140;11.588;2023-08-06T13:11:16;19.20;80.00
42421;DHT22;28063;48.140;11.588;2023-08-06T13:13:42;19.40;78.90
42421;DHT22;28063;48.140;11.588;2023-08-06T13:16:08;19.90;78.30
42421;DHT22;28063;48.140;11.588;2023-08-06T13:18:34;20.40;75.50
42421;DHT22;28063;48.140;11.588;2023-08-06T13:20:59;20.60;73.60
42421;DHT22;28063;48.140;11.588;2023-08-06T13:23:25;20.90;73.10
42421;DHT22;28063;48.140;11.588;2023-08-06T13:25:51;21.10;72.50
42421;DHT22;28063;48.140;11.588;2023-08-06T13:28:16;21.10;72.80
42421;DHT22;28063;48.140;11.588;2023-08-06T13:30:42;20.60;73.80
42421;DHT22;28063;48.140;11.588;2023-08-06T13:33:11;20.00;76.80
42421;DHT22;28063;48.140;11.588;2023-08-06T13:35:37;19.40;79.20
42421;DHT22;28063;48.140;11.588;2023-08-06T13:38:04;18.90;81.30
42421;DHT22;28063;48.140;11.588;2023-08-06T13:40:33;18.60;82.80
42421;DHT22;28063;48.140;11.588;2023-08-06T13:42:59;18.70;84.40
42421;DHT22;28063;48.140;11.588;2023-08-06T13:45:25;19.20;83.50
42421;DHT22;28063;48.140;11.588;2023-08-06T13:47:51;19.50;81.30
42421;DHT22;28063;48.140;11.588;2023-08-06T13:50:17;19.20;79.60
42421;DHT22;28063;48.140;11.588;2023-08-06T13:52:42;18.90;81.30
42421;DHT22;28063;48.140;11.588;2023-08-06T13:55:09;18.60;81.80
42421;DHT22;28063;48.140;11.588;2023-08-06T13:57:34;18.40;82.80
42421;DHT22;28063;48.140;11.588;2023-08-06T14:00:00;18.40;84.30
42421;DHT22;28063;48.140;11.588;2023-08-06T14:02:26;18.20;85.30
42421;DHT22;28063;48.140;11.588;2023-08-06T14:04:53;18.10;86.10
42421;DHT22;28063;48.140;11.588;2023-08-06T14:07:19;17.90;86.90
42421;DHT22;28063;48.140;11.588;2023-08-06T14:09:45;17.70;87.90
42421;DHT22;28063;48.140;11.588;2023-08-06T14:12:12;17.50;89.10
42421;DHT22;28063;48.140;11.588;2023-08-06T14:14:39;17.30;90.20
42421;DHT22;28063;48.140;11.588;2023-08-06T14:17:05;17.40;90.50
42421;DHT22;28063;48.140;11.588;2023-08-06T14:19:30;17.50;90.50
42421;DHT22;28063;48.140;11.588;2023-08-06T14:21:56;17.60;90.60
42421;DHT22;28063;48.140;11.588;2023-08-06T14:24:22;17.80;90.60
42421;DHT22;28063;48.140;11.588;2023-08-06T14:26:48;18.00;90.40
42421;DHT22;28063;48.140;11.588;2023-08-06T14:29:13;18.00;90.50
42421;DHT22;28063;48.140;11.588;2023-08-06T14:31:40;17.90;90.00
42421;DHT22;28063;48.140;11.588;2023-08-06T14:34:06;17.70;90.20
42421;DHT22;28063;48.140;11.588;2023-08-06T14:36:32;17.50;90.50
42421;DHT22;28063;48.140;11.588;2023-08-06T14:38:58;17.40;91.00
42421;DHT22;28063;48.140;11.588;2023-08-06T14:41:24;17.20;91.70
42421;DHT22;28063;48.140;11.588;2023-08-06T14:43:50;16.90;92.10
42421;DHT22;28063;48.140;11.588;2023-08-06T14:46:16;16.70;92.70
42421;DHT22;28063;48.140;11.588;2023-08-06T14:48:41;16.40;93.30
42421;DHT22;28063;48.140;11.588;2023-08-06T14:51:08;16.30;94.00
42421;DHT22;28063;48.140;11.588;2023-08-06T14:53:34;16.20;94.40
42421;DHT22;28063;48.140;11.588;2023-08-06T14:56:00;16.10;94.90
42421;DHT22;28063;48.140;11.588;2023-08-06T14:58:26;16.00;95.40
42421;DHT22;28063;48.140;11.588;2023-08-06T15:00:52;16.00;95.50
42421;DHT22;28063;48.140;11.588;2023-08-06T15:03:18;15.90;95.70
42421;DHT22;28063;48.140;11.588;2023-08-06T15:05:46;15.80;96.20
42421;DHT22;28063;48.140;11.588;2023-08-06T15:08:12;15.80;96.80
42421;DHT22;28063;48.140;11.588;2023-08-06T15:10:38;15.90;97.10
42421;DHT22;28063;48.140;11.588;2023-08-06T15:13:03;16.10;97.00
42421;DHT22;28063;48.140;11.588;2023-08-06T15:15:29;16.20;96.40
42421;DHT22;28063;48.140;11.588;2023-08-06T15:17:55;16.30;96.30
42421;DHT22;28063;48.140;11.588;2023-08-06T15:20:22;16.40;96.20
42421;DHT22;28063;48.140;11.588;2023-08-06T15:22:48;16.40;95.90
42421;DHT22;28063;48.140;11.588;2023-08-06T15:25:13;16.50;96.00
42421;DHT22;28063;48.140;11.588;2023-08-06T15:27:39;16.40;95.80
42421;DHT22;28063;48.140;11.588;2023-08-06T15:30:06;16.20;95.90
42421;DHT22;28063;48.140;11.588;2023-08-06T15:32:32;16.00;96.30
42421;DHT22;28063;48.140;11.588;2023-08-06T15:34:58;15.80;96.70
42421;DHT22;28063;48.140;11.588;2023-08-06T15:37:24;15.70;97.20
42421;DHT22;28063;48.140;11.588;2023-08-06T15:39:50;15.60;97.10
42421;DHT22;28063;48.140;11.588;2023-08-06T15:42:16;15.50;97.90
42421;DHT22;28063;48.140;11.588;2023-08-06T15:44:43;15.40;98.20
42421;DHT22;28063;48.140;11.588;2023-08-06T15:47:09;15.30;98.80
42421;DHT22;28063;48.140;11.588;2023-08-06T15:49:35;15.20;99.30
42421;DHT22;28063;48.140;11.588;2023-08-06T15:52:01;15.10;99.70
42421;DHT22;28063;48.140;11.588;2023-08-06T15:54:27;15.00;99.90
42421;DHT22;28063;48.140;11.588;2023-08-06T15:56:53;14.90;99.90
42421;DHT22;28063;48.140;11.588;2023-08-06T15:59:23;14.80;99.90
42421;DHT22;28063;48.140;11.588;2023-08-06T16:01:49;14.60;99.90
42421;DHT22;28063;48.140;11.588;2023-08-06T16:04:15;14.50;99.90
42421;DHT22;28063;48.140;11.588;2023-08-06T16:06:40;14.20;99.90
42421;DHT22;28063;48.140;11.588;2023-08-06T16:09:06;14.00;99.90
42421;DHT22;28063;48.140;11.588;2023-08-06T16:11:33;13.90;99.90
42421;DHT22;28063;48.140;11.588;2023-08-06T16:13:59;13.70;99.90
42421;DHT22;28063;48.140;11.588;2023-08-06T16:16:25;13.70;99.90
42421;DHT22;28063;48.140;11.588;2023-08-06T16:18:50;13.80;99.90
42421;DHT22;28063;48.140;11.588;2023-08-06T16:21:16;13.90;99.90
42421;DHT22;28063;48.140;11.588;2023-08-06T16:23:42;14.00;99.90
42421;DHT22;28063;48.140;11.588;2023-08-06T16:26:07;14.00;99.90
42421;DHT22;28063;48.140;11.588;2023-08-06T16:28:33;14.00;99.90
42421;DHT22;28063;48.140;11.588;2023-08-06T16:30:59;14.00;99.90
42421;DHT22;28063;48.140;11.588;2023-08-06T16:33:24;13.90;99.90
42421;DHT22;28063;48.140;11.588;2023-08-06T16:35:50;13.80;99.90
42421;DHT22;28063;48.140;11.588;2023-08-06T16:38:15;13.70;99.90
42421;DHT22;28063;48.140;11.588;2023-08-06T16:40:42;13.60;99.90
42421;DHT22;28063;48.140;11.588;2023-08-06T16:43:08;13.50;99.90
42421;DHT22;28063;48.140;11.588;2023-08-06T16:45:36;13.50;99.90
42421;DHT22;28063;48.140;11.588;2023-08-06T16:48:04;13.40;99.90
42421;DHT22;28063;48.140;11.588;2023-08-06T16:50:30;13.30;99.90
42421;DHT22;28063;48.140;11.588;2023-08-06T16:52:55;13.30;99.90
42421;DHT22;28063;48.140;11.588;2023-08-06T16:55:22;13.30;99.90
42421;DHT22;28063;48.140;11.588;2023-08-06T16:57:48;13.40;99.90
42421;DHT22;28063;48.140;11.588;2023-08-06T17:00:14;13.50;99.90
42421;DHT22;28063;48.140;11.588;2023-08-06T17:02:40;13.60;99.90
42421;DHT22;28063;48.140;11.588;2023-08-06T17:05:05;13.60;99.90
42421;DHT22;28063;48.140;11.588;2023-08-06T17:07:31;13.70;99.90
42421;DHT22;28063;48.140;11.588;2023-08-06T17:09:57;13.80;99.90
42421;DHT22;28063;48.140;11.588;2023-08-06T17:12:23;13.80;99.90
42421;DHT22;28063;48.140;11.588;2023-08-06T17:14:51;13.90;99.90
42421;DHT22;28063;48.140;11.588;2023-08-06T17:17:17;13.90;99.90
42421;DHT22;28063;48.140;11.588;2023-08-06T17:19:43;13.90;99.90
42421;DHT22;28063;48.140;11.588;2023-08-06T17:22:09;13.80;99.90
42421;DHT22;28063;48.140;11.588;2023-08-06T17:24:35;13.90;99.90
42421;DHT22;28063;48.140;11.588;2023-08-06T17:27:01;13.90;99.90
42421;DHT22;28063;48.140;11.588;2023-08-06T17:29:27;13.90;99.90
42421;DHT22;28063;48.140;11.588;2023-08-06T17:31:53;13.80;99.90
42421;DHT22;28063;48.140;11.588;2023-08-06T17:34:19;13.80;99.90
42421;DHT22;28063;48.140;11.588;2023-08-06T17:36:45;13.80;99.90
42421;DHT22;28063;48.140;11.588;2023-08-06T17:39:11;13.70;99.90
42421;DHT22;28063;48.140;11.588;2023-08-06T17:41:37;13.70;99.90
42421;DHT22;28063;48.140;11.588;2023-08-06T17:44:02;13.80;99.90
42421;DHT22;28063;48.140;11.588;2023-08-06T17:46:28;13.80;99.90
42421;DHT22;28063;48.140;11.588;2023-08-06T17:48:54;14.10;99.90
42421;DHT22;28063;48.140;11.588;2023-08-06T17:51:22;14.60;99.90
42421;DHT22;28063;48.140;11.588;2023-08-06T17:53:48;14.70;99.90
42421;DHT22;28063;48.140;11.588;2023-08-06T17:56:13;14.50;99.90
42421;DHT22;28063;48.140;11.588;2023-08-06T17:58:41;14.30;99.90
42421;DHT22;28063;48.140;11.588;2023-08-06T18:01:07;14.20;99.90
42421;DHT22;28063;48.140;11.588;2023-08-06T18:03:32;14.10;99.90
42421;DHT22;28063;48.140;11.588;2023-08-06T18:05:59;13.90;99.90
42421;DHT22;28063;48.140;11.588;2023-08-06T18:08:25;13.70;99.90
42421;DHT22;28063;48.140;11.588;2023-08-06T18:10:52;13.60;99.90
42421;DHT22;28063;48.140;11.588;2023-08-06T18:13:18;13.50;99.90
42421;DHT22;28063;48.140;11.588;2023-08-06T18:15:44;13.40;99.90
42421;DHT22;28063;48.140;11.588;2023-08-06T18:18:09;13.40;99.90
42421;DHT22;28063;48.140;11.588;2023-08-06T18:20:36;13.30;99.90
42421;DHT22;28063;48.140;11.588;2023-08-06T18:23:01;13.30;99.90
42421;DHT22;28063;48.140;11.588;2023-08-06T18:25:28;13.30;99.90
42421;DHT22;28063;48.140;11.588;2023-08-06T18:27:54;13.20;99.90
42421;DHT22;28063;48.140;11.588;2023-08-06T18:30:20;13.20;99.90
42421;DHT22;28063;48.140;11.588;2023-08-06T18:32:45;13.20;99.90
42421;DHT22;28063;48.140;11.588;2023-08-06T18:35:11;13.10;99.90
42421;DHT22;28063;48.140;11.588;2023-08-06T18:37:37;13.10;99.90
42421;DHT22;28063;48.140;11.588;2023-08-06T18:40:06;13.10;99.90
42421;DHT22;28063;48.140;11.588;2023-08-06T18:42:32;13.20;99.90
42421;DHT22;28063;48.140;11.588;2023-08-06T18:44:58;13.30;99.90
42421;DHT22;28063;48.140;11.588;2023-08-06T18:47:27;13.30;99.90
42421;DHT22;28063;48.140;11.588;2023-08-06T18:49:53;13.30;99.90
42421;DHT22;28063;48.140;11.588;2023-08-06T18:52:19;13.40;99.90
42421;DHT22;28063;48.140;11.588;2023-08-06T18:54:45;13.40;99.90
42421;DHT22;28063;48.140;11.588;2023-08-06T18:57:11;13.50;99.90
42421;DHT22;28063;48.140;11.588;2023-08-06T18:59:36;13.50;99.90
42421;DHT22;28063;48.140;11.588;2023-08-06T19:02:02;13.40;99.90
42421;DHT22;28063;48.140;11.588;2023-08-06T19:04:28;13.50;99.90
42421;DHT22;28063;48.140;11.588;2023-08-06T19:06:54;13.40;99.90
42421;DHT22;28063;48.140;11.588;2023-08-06T19:09:20;13.40;99.90
42421;DHT22;28063;48.140;11.588;2023-08-06T19:11:47;13.30;99.90
42421;DHT22;28063;48.140;11.588;2023-08-06T19:14:13;13.20;99.90
42421;DHT22;28063;48.140;11.588;2023-08-06T19:16:41;13.30;99.90
42421;DHT22;28063;48.140;11.588;2023-08-06T19:19:12;13.30;99.90
42421;DHT22;28063;48.140;11.588;2023-08-06T19:21:37;13.40;99.90
42421;DHT22;28063;48.140;11.588;2023-08-06T19:24:03;13.40;99.90
42421;DHT22;28063;48.140;11.588;2023-08-06T19:26:29;13.40;99.90
42421;DHT22;28063;48.140;11.588;2023-08-06T19:28:55;13.40;99.90
42421;DHT22;28063;48.140;11.588;2023-08-06T19:31:21;13.40;99.90
42421;DHT22;28063;48.140;11.588;2023-08-06T19:33:47;13.30;99.90
42421;DHT22;28063;48.140;11.588;2023-08-06T19:36:12;13.30;99.90
42421;DHT22;28063;48.140;11.588;2023-08-06T19:38:39;13.30;99.90
42421;DHT22;28063;48.140;11.588;2023-08-06T19:41:06;13.20;99.90
42421;DHT22;28063;48.140;11.588;2023-08-06T19:43:33;13.30;99.90
42421;DHT22;28063;48.140;11.588;2023-08-06T19:45:59;13.30;99.90
42421;DHT22;28063;48.140;11.588;2023-08-06T19:48:26;13.30;99.90
42421;DHT22;28063;48.140;11.588;2023-08-06T19:50:53;13.30;99.90
42421;DHT22;28063;48.140;11.588;2023-08-06T19:53:20;13.30;99.90
42421;DHT22;28063;48.140;11.588;2023-08-06T19:55:47;13.20;99.70
42421;DHT22;28063;48.140;11.588;2023-08-06T19:58:15;13.20;99.50
42421;DHT22;28063;48.140;11.588;2023-08-06T20:00:40;13.30;99.30
42421;DHT22;28063;48.140;11.588;2023-08-06T20:03:06;13.20;99.70
42421;DHT22;28063;48.140;11.588;2023-08-06T20:05:34;13.20;99.90
42421;DHT22;28063;48.140;11.588;2023-08-06T20:08:00;13.20;99.90
42421;DHT22;28063;48.140;11.588;2023-08-06T20:10:26;13.20;99.90
42421;DHT22;28063;48.140;11.588;2023-08-06T20:12:51;13.20;99.90
42421;DHT22;28063;48.140;11.588;2023-08-06T20:15:17;13.20;99.90
42421;DHT22;28063;48.140;11.588;2023-08-06T20:17:43;13.10;99.90
42421;DHT22;28063;48.140;11.588;2023-08-06T20:20:08;13.10;99.90
42421;DHT22;28063;48.140;11.588;2023-08-06T20:22:34;13.10;99.90
42421;DHT22;28063;48.140;11.588;2023-08-06T20:25:00;13.10;99.90
42421;DHT22;28063;48.140;11.588;2023-08-06T20:27:26;13.20;99.90
42421;DHT22;28063;48.140;11.588;2023-08-06T20:29:52;13.10;99.90
42421;DHT22;28063;48.140;11.588;2023-08-06T20:32:17;13.10;99.90
42421;DHT22;28063;48.140;11.588;2023-08-06T20:34:43;13.10;99.90
42421;DHT22;28063;48.140;11.588;2023-08-06T20:37:09;13.10;99.90
42421;DHT22;28063;48.140;11.588;2023-08-06T20:39:36;13.10;99.90
42421;DHT22;28063;48.140;11.588;2023-08-06T20:42:02;13.10;99.90
42421;DHT22;28063;48.140;11.588;2023-08-06T20:44:28;13.10;99.70
42421;DHT22;28063;48.140;11.588;2023-08-06T20:46:57;13.20;99.10
42421;DHT22;28063;48.140;11.588;2023-08-06T20:49:22;13.10;98.90
42421;DHT22;28063;48.140;11.588;2023-08-06T20:51:48;13.10;99.20
42421;DHT22;28063;48.140;11.588;2023-08-06T20:54:14;13.10;99.20
42421;DHT22;28063;48.140;11.588;2023-08-06T20:56:40;13.10;99.10
42421;DHT22;28063;48.140;11.588;2023-08-06T20:59:05;13.10;98.90
42421;DHT22;28063;48.140;11.588;2023-08-06T21:01:31;13.10;98.80
42421;DHT22;28063;48.140;11.588;2023-08-06T21:03:57;13.10;98.70
42421;DHT22;28063;48.140;11.588;2023-08-06T21:06:22;13.10;98.50
42421;DHT22;28063;48.140;11.588;2023-08-06T21:08:48;13.00;98.30
42421;DHT22;28063;48.140;11.588;2023-08-06T21:11:14;13.00;98.40
42421;DHT22;28063;48.140;11.588;2023-08-06T21:13:41;12.90;98.40
42421;DHT22;28063;48.140;11.588;2023-08-06T21:16:08;13.00;98.40
42421;DHT22;28063;48.140;11.588;2023-08-06T21:18:34;13.00;98.40
42421;DHT22;28063;48.140;11.588;2023-08-06T21:21:04;13.00;98.30
42421;DHT22;28063;48.140;11.588;2023-08-06T21:23:31;12.90;98.10
42421;DHT22;28063;48.140;11.588;2023-08-06T21:26:02;12.90;98.20
42421;DHT22;28063;48.140;11.588;2023-08-06T21:28:32;13.00;98.10
42421;DHT22;28063;48.140;11.588;2023-08-06T21:30:59;13.00;98.10
42421;DHT22;28063;48.140;11.588;2023-08-06T21:33:27;13.00;98.00
42421;DHT22;28063;48.140;11.588;2023-08-06T21:35:54;13.00;97.90
42421;DHT22;28063;48.140;11.588;2023-08-06T21:38:23;13.00;97.90
42421;DHT22;28063;48.140;11.588;2023-08-06T21:40:49;13.00;97.90
42421;DHT22;28063;48.140;11.588;2023-08-06T21:43:15;13.00;97.70
42421;DHT22;28063;48.140;11.588;2023-08-06T21:45:40;13.00;97.60
42421;DHT22;28063;48.140;11.588;2023-08-06T21:48:06;12.90;97.50
42421;DHT22;28063;48.140;11.588;2023-08-06T21:50:33;13.00;97.60
42421;DHT22;28063;48.140;11.588;2023-08-06T21:53:00;13.00;97.60
42421;DHT22;28063;48.140;11.588;2023-08-06T21:55:29;13.00;97.50
42421;DHT22;28063;48.140;11.588;2023-08-06T21:57:55;13.00;97.10
42421;DHT22;28063;48.140;11.588;2023-08-06T22:00:20;13.00;96.90
42421;DHT22;28063;48.140;11.588;2023-08-06T22:02:46;13.00;96.60
42421;DHT22;28063;48.140;11.588;2023-08-06T22:05:12;13.00;96.50
42421;DHT22;28063;48.140;11.588;2023-08-06T22:07:37;13.00;96.50
42421;DHT22;28063;48.140;11.588;2023-08-06T22:10:03;13.00;96.30
42421;DHT22;28063;48.140;11.588;2023-08-06T22:12:29;13.00;96.30
42421;DHT22;28063;48.140;11.588;2023-08-06T22:14:55;13.10;95.80
42421;DHT22;28063;48.140;11.588;2023-08-06T22:17:21;13.10;95.80
42421;DHT22;28063;48.140;11.588;2023-08-06T22:19:47;13.10;95.80
42421;DHT22;28063;48.140;11.588;2023-08-06T22:22:13;13.10;95.60
42421;DHT22;28063;48.140;11.588;2023-08-06T22:24:38;13.10;95.30
42421;DHT22;28063;48.140;11.588;2023-08-06T22:27:07;13.20;95.30
42421;DHT22;28063;48.140;11.588;2023-08-06T22:29:32;13.10;94.70
42421;DHT22;28063;48.140;11.588;2023-08-06T22:31:58;13.20;94.70
42421;DHT22;28063;48.140;11.588;2023-08-06T22:34:25;13.20;94.30
42421;DHT22;28063;48.140;11.588;2023-08-06T22:36:51;13.20;94.00
42421;DHT22;28063;48.140;11.588;2023-08-06T22:39:17;13.20;94.00
42421;DHT22;28063;48.140;11.588;2023-08-06T22:41:42;13.20;93.90
42421;DHT22;28063;48.140;11.588;2023-08-06T22:44:08;13.20;93.50
42421;DHT22;28063;48.140;11.588;2023-08-06T22:46:34;13.10;93.60
42421;DHT22;28063;48.140;11.588;2023-08-06T22:49:00;13.10;93.50
42421;DHT22;28063;48.140;11.588;2023-08-06T22:51:26;13.10;93.50
42421;DHT22;28063;48.140;11.588;2023-08-06T22:53:51;13.10;93.40
42421;DHT22;28063;48.140;11.588;2023-08-06T22:56:17;13.10;93.30
42421;DHT22;28063;48.140;11.588;2023-08-06T22:58:43;13.10;93.20
42421;DHT22;28063;48.140;11.588;2023-08-06T23:01:11;13.00;93.30